sensor_id;sensor_type;location;lat;lon;timestamp;P1;durP1;ratioP1;P2;durP2;ratioP2
35243;SDS011;37916;52.160;21.066;2022-12-08T00:08:17;7.60;;;3.63;;
35243;SDS011;37916;52.160;21.066;2022-12-08T00:18:44;7.40;;;3.30;;
35243;SDS011;37916;52.160;21.066;2022-12-08T00:28:47;5.37;;;2.63;;
35243;SDS011;37916;52.160;21.066;2022-12-08T00:38:48;6.90;;;3.10;;
35243;SDS011;37916;52.160;21.066;2022-12-08T00:48:49;5.65;;;3.05;;
35243;SDS011;37916;52.160;21.066;2022-12-08T00:58:50;4.85;;;1.88;;
35243;SDS011;37916;52.160;21.066;2022-12-08T01:09:03;5.00;;;2.17;;
35243;SDS011;37916;52.160;21.066;2022-12-08T01:19:17;4.30;;;1.80;;
35243;SDS011;37916;52.160;21.066;2022-12-08T01:29:21;3.65;;;1.90;;
35243;SDS011;37916;52.160;21.066;2022-12-08T01:39:30;2.35;;;1.63;;
35243;SDS011;37916;52.160;21.066;2022-12-08T01:49:45;6.90;;;2.03;;
35243;SDS011;37916;52.160;21.066;2022-12-08T02:00:13;6.38;;;2.75;;
35243;SDS011;37916;52.160;21.066;2022-12-08T02:10:31;3.45;;;1.65;;
35243;SDS011;37916;52.160;21.066;2022-12-08T02:20:51;3.83;;;1.80;;
35243;SDS011;37916;52.160;21.066;2022-12-08T02:52:56;5.13;;;2.97;;
35243;SDS011;37916;52.160;21.066;2022-12-08T03:03:17;7.07;;;3.35;;
35243;SDS011;37916;52.160;21.066;2022-12-08T03:13:29;6.03;;;2.67;;
35243;SDS011;37916;52.160;21.066;2022-12-08T03:23:38;6.20;;;3.03;;
35243;SDS011;37916;52.160;21.066;2022-12-08T03:33:46;6.82;;;3.00;;
35243;SDS011;37916;52.160;21.066;2022-12-08T03:43:53;7.03;;;3.67;;
35243;SDS011;37916;52.160;21.066;2022-12-08T03:53:58;7.25;;;3.75;;
35243;SDS011;37916;52.160;21.066;2022-12-08T04:04:30;8.23;;;3.88;;
35243;SDS011;37916;52.160;21.066;2022-12-08T04:15:33;13.18;;;4.72;;
35243;SDS011;37916;52.160;21.066;2022-12-08T04:26:20;10.35;;;4.70;;
35243;SDS011;37916;52.160;21.066;2022-12-08T04:36:24;13.20;;;4.82;;
35243;SDS011;37916;52.160;21.066;2022-12-08T04:46:37;13.63;;;5.53;;
35243;SDS011;37916;52.160;21.066;2022-12-08T04:57:21;10.20;;;4.97;;
35243;SDS011;37916;52.160;21.066;2022-12-08T05:07:31;9.63;;;5.05;;
35243;SDS011;37916;52.160;21.066;2022-12-08T05:17:40;10.13;;;5.07;;
35243;SDS011;37916;52.160;21.066;2022-12-08T05:27:46;15.25;;;6.05;;
35243;SDS011;37916;52.160;21.066;2022-12-08T05:37:50;15.93;;;6.32;;
35243;SDS011;37916;52.160;21.066;2022-12-08T05:47:57;12.27;;;5.47;;
35243;SDS011;37916;52.160;21.066;2022-12-08T05:58:01;15.00;;;7.03;;
35243;SDS011;37916;52.160;21.066;2022-12-08T06:08:01;10.90;;;5.27;;
35243;SDS011;37916;52.160;21.066;2022-12-08T06:18:08;14.15;;;6.10;;
35243;SDS011;37916;52.160;21.066;2022-12-08T06:48:53;12.75;;;6.80;;
35243;SDS011;37916;52.160;21.066;2022-12-08T06:59:10;12.75;;;6.63;;
35243;SDS011;37916;52.160;21.066;2022-12-08T07:09:19;16.98;;;6.90;;
35243;SDS011;37916;52.160;21.066;2022-12-08T07:19:40;13.32;;;7.18;;
35243;SDS011;37916;52.160;21.066;2022-12-08T07:30:23;16.20;;;8.35;;
35243;SDS011;37916;52.160;21.066;2022-12-08T07:40:38;14.07;;;7.28;;
35243;SDS011;37916;52.160;21.066;2022-12-08T07:50:41;18.67;;;7.25;;
35243;SDS011;37916;52.160;21.066;2022-12-08T08:10:46;17.78;;;7.12;;
35243;SDS011;37916;52.160;21.066;2022-12-08T08:20:49;11.63;;;5.57;;
35243;SDS011;37916;52.160;21.066;2022-12-08T08:30:50;19.20;;;9.15;;
35243;SDS011;37916;52.160;21.066;2022-12-08T08:40:51;18.63;;;10.23;;
35243;SDS011;37916;52.160;21.066;2022-12-08T08:51:19;20.83;;;9.13;;
35243;SDS011;37916;52.160;21.066;2022-12-08T09:01:24;17.55;;;9.10;;
35243;SDS011;37916;52.160;21.066;2022-12-08T09:11:44;18.63;;;9.90;;
35243;SDS011;37916;52.160;21.066;2022-12-08T09:22:09;18.60;;;10.17;;
35243;SDS011;37916;52.160;21.066;2022-12-08T09:32:10;17.48;;;10.55;;
35243;SDS011;37916;52.160;21.066;2022-12-08T09:42:13;18.30;;;10.32;;
35243;SDS011;37916;52.160;21.066;2022-12-08T10:03:14;18.90;;;9.57;;
35243;SDS011;37916;52.160;21.066;2022-12-08T10:13:36;22.98;;;11.43;;
35243;SDS011;37916;52.160;21.066;2022-12-08T10:23:45;20.02;;;12.15;;
35243;SDS011;37916;52.160;21.066;2022-12-08T10:33:55;19.50;;;13.00;;
35243;SDS011;37916;52.160;21.066;2022-12-08T10:43:59;23.27;;;12.20;;
35243;SDS011;37916;52.160;21.066;2022-12-08T10:54:13;26.52;;;14.05;;
35243;SDS011;37916;52.160;21.066;2022-12-08T11:04:36;20.88;;;12.80;;
35243;SDS011;37916;52.160;21.066;2022-12-08T11:14:56;30.00;;;12.30;;
35243;SDS011;37916;52.160;21.066;2022-12-08T11:35:55;23.35;;;13.00;;
35243;SDS011;37916;52.160;21.066;2022-12-08T11:45:51;20.75;;;12.15;;
35243;SDS011;37916;52.160;21.066;2022-12-08T12:29:18;22.35;;;14.00;;
35243;SDS011;37916;52.160;21.066;2022-12-08T12:39:44;26.33;;;14.93;;
35243;SDS011;37916;52.160;21.066;2022-12-08T14:27:09;32.72;;;17.85;;
35243;SDS011;37916;52.160;21.066;2022-12-08T15:29:49;36.80;;;18.10;;
35243;SDS011;37916;52.160;21.066;2022-12-08T15:40:24;35.25;;;19.08;;
35243;SDS011;37916;52.160;21.066;2022-12-08T16:00:58;37.88;;;19.15;;
35243;SDS011;37916;52.160;21.066;2022-12-08T16:11:17;35.33;;;19.70;;
35243;SDS011;37916;52.160;21.066;2022-12-08T16:21:44;30.95;;;18.50;;
35243;SDS011;37916;52.160;21.066;2022-12-08T17:02:27;29.58;;;16.40;;
35243;SDS011;37916;52.160;21.066;2022-12-08T17:12:57;27.70;;;16.60;;
35243;SDS011;37916;52.160;21.066;2022-12-08T17:23:07;26.17;;;15.32;;
35243;SDS011;37916;52.160;21.066;2022-12-08T17:44:28;25.85;;;15.45;;
35243;SDS011;37916;52.160;21.066;2022-12-08T17:54:51;27.38;;;14.00;;
35243;SDS011;37916;52.160;21.066;2022-12-08T18:04:56;29.13;;;15.13;;
35243;SDS011;37916;52.160;21.066;2022-12-08T18:14:57;25.65;;;14.38;;
35243;SDS011;37916;52.160;21.066;2022-12-08T18:25:41;25.17;;;13.70;;
35243;SDS011;37916;52.160;21.066;2022-12-08T18:35:48;27.27;;;15.93;;
35243;SDS011;37916;52.160;21.066;2022-12-08T19:17:31;24.37;;;13.80;;
35243;SDS011;37916;52.160;21.066;2022-12-08T19:49:28;26.92;;;14.60;;
35243;SDS011;37916;52.160;21.066;2022-12-08T20:31:21;33.83;;;16.98;;
35243;SDS011;37916;52.160;21.066;2022-12-08T21:03:14;29.27;;;15.98;;
35243;SDS011;37916;52.160;21.066;2022-12-08T21:23:34;32.72;;;16.58;;
35243;SDS011;37916;52.160;21.066;2022-12-08T21:33:41;31.95;;;15.80;;
35243;SDS011;37916;52.160;21.066;2022-12-08T21:43:58;26.52;;;14.50;;
35243;SDS011;37916;52.160;21.066;2022-12-08T21:54:22;29.52;;;16.10;;
35243;SDS011;37916;52.160;21.066;2022-12-08T22:04:53;26.75;;;14.75;;
35243;SDS011;37916;52.160;21.066;2022-12-08T22:15:43;28.17;;;15.38;;
35243;SDS011;37916;52.160;21.066;2022-12-08T22:25:56;29.38;;;16.40;;
35243;SDS011;37916;52.160;21.066;2022-12-08T22:46:00;31.52;;;17.10;;
35243;SDS011;37916;52.160;21.066;2022-12-08T22:56:07;33.70;;;18.23;;
35243;SDS011;37916;52.160;21.066;2022-12-08T23:06:10;33.80;;;18.05;;
35243;SDS011;37916;52.160;21.066;2022-12-08T23:16:17;35.85;;;19.00;;
35243;SDS011;37916;52.160;21.066;2022-12-08T23:26:25;36.97;;;18.52;;
35243;SDS011;37916;52.160;21.066;2022-12-08T23:36:51;34.70;;;18.45;;
35243;SDS011;37916;52.160;21.066;2022-12-08T23:47:07;35.92;;;17.85;;
35243;SDS011;37916;52.160;21.066;2022-12-08T23:57:30;37.53;;;18.48;;
